createdAt,value
2022-09-13T00:01:01.774Z,19.84
2022-09-13T00:03:28.811Z,19.70
2022-09-13T00:05:55.674Z,19.84
2022-09-13T00:08:22.196Z,19.76
2022-09-13T00:10:49.086Z,19.88
2022-09-13T00:13:16.702Z,19.44
2022-09-13T00:15:48.616Z,19.24
2022-09-13T00:18:16.208Z,19.39
2022-09-13T00:20:42.744Z,19.17
2022-09-13T00:23:09.636Z,19.12
2022-09-13T00:25:36.321Z,18.89
2022-09-13T00:28:03.590Z,18.92
2022-09-13T00:30:30.262Z,18.80
2022-09-13T00:32:56.769Z,18.78
2022-09-13T00:35:23.914Z,18.53
2022-09-13T00:37:50.709Z,18.68
2022-09-13T00:40:17.305Z,18.92
2022-09-13T00:42:43.918Z,18.60
2022-09-13T00:45:10.751Z,18.33
2022-09-13T00:47:48.576Z,18.26
2022-09-13T00:50:19.453Z,17.72
2022-09-13T00:52:50.029Z,18.43
2022-09-13T00:55:27.866Z,18.35
2022-09-13T00:57:57.237Z,18.07
2022-09-13T01:00:23.732Z,18.35
2022-09-13T01:02:54.126Z,18.03
2022-09-13T01:05:22.920Z,17.82
2022-09-13T01:07:50.835Z,17.81
2022-09-13T01:10:18.224Z,17.69
2022-09-13T01:12:53.184Z,17.73
2022-09-13T01:15:19.828Z,18.10
2022-09-13T01:17:46.602Z,18.00
2022-09-13T01:20:13.879Z,18.23
2022-09-13T01:22:49.560Z,18.23
2022-09-13T01:25:41.044Z,18.12
2022-09-13T01:28:12.889Z,18.01
2022-09-13T01:31:02.227Z,17.79
2022-09-13T01:33:37.618Z,18.19
2022-09-13T01:36:35.943Z,17.72
2022-09-13T01:39:07.456Z,18.22
2022-09-13T01:42:01.781Z,18.11
2022-09-13T01:45:07.928Z,18.00
2022-09-13T01:47:43.978Z,17.74
2022-09-13T01:50:10.431Z,17.95
2022-09-13T01:52:44.852Z,18.24
2022-09-13T01:55:14.197Z,18.18
2022-09-13T01:57:56.002Z,18.06
2022-09-13T02:00:22.434Z,17.90
2022-09-13T02:02:57.162Z,17.83
2022-09-13T02:05:48.299Z,18.00
2022-09-13T02:08:33.394Z,17.99
2022-09-13T02:11:22.802Z,17.90
2022-09-13T02:13:54.656Z,18.04
2022-09-13T02:16:42.648Z,17.91
2022-09-13T02:19:14.339Z,17.97
2022-09-13T02:21:44.956Z,17.86
2022-09-13T02:24:16.948Z,17.76
2022-09-13T02:26:46.688Z,17.75
2022-09-13T02:29:18.080Z,17.74
2022-09-13T02:31:49.287Z,17.75
2022-09-13T02:34:22.670Z,17.64
2022-09-13T02:36:50.992Z,17.73
2022-09-13T02:39:19.195Z,18.00
2022-09-13T02:41:52.200Z,18.01
2022-09-13T02:44:37.725Z,18.06
2022-09-13T02:47:06.847Z,18.21
2022-09-13T02:49:38.764Z,17.84
2022-09-13T02:52:08.277Z,18.09
2022-09-13T02:54:40.918Z,17.95
2022-09-13T02:57:18.580Z,17.88
2022-09-13T02:59:47.022Z,18.07
2022-09-13T03:02:16.494Z,17.89
2022-09-13T03:04:43.075Z,17.59
2022-09-13T03:07:14.334Z,17.79
2022-09-13T03:09:50.033Z,18.01
2022-09-13T03:12:38.943Z,17.93
2022-09-13T03:15:18.272Z,17.73
2022-09-13T03:17:53.599Z,17.55
2022-09-13T03:20:41.617Z,17.55
2022-09-13T03:23:35.390Z,17.78
2022-09-13T03:26:22.283Z,18.10
2022-09-13T03:29:05.177Z,17.89
2022-09-13T03:31:50.431Z,18.26
2022-09-13T03:34:34.002Z,17.90
2022-09-13T03:37:25.921Z,17.73
2022-09-13T03:39:53.857Z,17.59
2022-09-13T03:42:46.733Z,17.53
2022-09-13T03:45:15.086Z,17.72
2022-09-13T03:47:42.708Z,18.08
2022-09-13T03:50:10.147Z,18.14
2022-09-13T03:52:36.786Z,18.22
2022-09-13T03:55:03.410Z,18.08
2022-09-13T03:57:29.844Z,17.80
2022-09-13T03:59:57.246Z,18.03
2022-09-13T04:02:25.866Z,18.10
2022-09-13T04:04:52.430Z,18.34
2022-09-13T04:07:23.203Z,18.29
2022-09-13T04:09:50.206Z,17.80
2022-09-13T04:12:17.392Z,18.13
2022-09-13T04:14:43.986Z,18.11
2022-09-13T04:17:10.827Z,18.40
2022-09-13T04:19:37.521Z,18.41
2022-09-13T04:22:04.117Z,18.36
2022-09-13T04:24:31.442Z,18.06
2022-09-13T04:26:58.439Z,18.16
2022-09-13T04:29:26.351Z,18.09
2022-09-13T04:31:54.398Z,18.04
2022-09-13T04:34:23.086Z,17.94
2022-09-13T04:36:50.807Z,18.18
2022-09-13T04:39:17.250Z,18.34
2022-09-13T04:41:46.833Z,18.41
2022-09-13T04:44:13.318Z,18.37
2022-09-13T04:46:39.829Z,18.36
2022-09-13T04:49:06.332Z,18.34
2022-09-13T04:51:32.913Z,18.38
2022-09-13T04:54:00.328Z,18.29
2022-09-13T04:56:27.059Z,18.22
2022-09-13T04:58:55.139Z,18.17
2022-09-13T05:01:27.550Z,17.93
2022-09-13T05:03:55.420Z,18.55
2022-09-13T05:06:22.821Z,18.23
2022-09-13T05:08:55.259Z,18.33
2022-09-13T05:11:22.936Z,18.51
2022-09-13T05:13:55.168Z,18.54
2022-09-13T05:16:29.995Z,18.63
2022-09-13T05:18:57.242Z,18.59
2022-09-13T05:21:24.238Z,18.60
2022-09-13T05:23:51.712Z,18.32
2022-09-13T05:26:18.737Z,18.54
2022-09-13T05:28:45.199Z,18.58
2022-09-13T05:31:29.078Z,18.62
2022-09-13T05:33:58.842Z,18.75
2022-09-13T05:36:26.473Z,18.40
2022-09-13T05:39:06.871Z,18.64
2022-09-13T05:41:41.230Z,18.96
2022-09-13T05:44:13.184Z,18.94
2022-09-13T05:46:40.465Z,18.83
2022-09-13T05:49:06.930Z,18.67
2022-09-13T05:51:33.414Z,18.74
2022-09-13T05:54:00.080Z,18.89
2022-09-13T05:56:28.674Z,18.92
2022-09-13T05:58:55.602Z,19.03
2022-09-13T06:01:25.645Z,19.17
2022-09-13T06:03:54.162Z,18.96
2022-09-13T06:06:21.733Z,18.83
2022-09-13T06:08:49.469Z,18.89
2022-09-13T06:11:16.005Z,18.58
2022-09-13T06:13:43.384Z,18.78
2022-09-13T06:16:11.748Z,18.96
2022-09-13T06:18:38.457Z,18.84
2022-09-13T06:21:07.307Z,19.17
2022-09-13T06:23:34.101Z,18.68
2022-09-13T06:26:10.480Z,19.15
2022-09-13T06:28:37.746Z,19.42
2022-09-13T06:31:12.159Z,19.31
2022-09-13T06:33:40.575Z,18.99
2022-09-13T06:36:09.816Z,18.48
2022-09-13T06:38:37.409Z,18.09
2022-09-13T06:41:06.380Z,18.82
2022-09-13T06:43:33.714Z,18.74
2022-09-13T06:46:09.334Z,18.29
2022-09-13T06:48:38.928Z,18.35
2022-09-13T06:51:09.666Z,18.20
2022-09-13T06:53:36.993Z,18.26
2022-09-13T06:56:16.056Z,18.04
2022-09-13T06:58:44.005Z,18.54
2022-09-13T07:01:14.085Z,18.34
2022-09-13T07:03:42.640Z,18.12
2022-09-13T07:06:14.256Z,17.85
2022-09-13T07:08:42.305Z,17.92
2022-09-13T07:11:10.059Z,17.74
2022-09-13T07:13:36.839Z,18.16
2022-09-13T07:16:11.437Z,17.84
2022-09-13T07:18:38.573Z,18.08
2022-09-13T07:21:09.007Z,17.78
2022-09-13T07:23:37.891Z,18.04
2022-09-13T07:26:05.676Z,17.70
2022-09-13T07:28:40.261Z,18.33
2022-09-13T07:31:25.221Z,18.15
2022-09-13T07:33:56.593Z,17.87
2022-09-13T07:36:23.999Z,18.53
2022-09-13T07:38:50.688Z,18.62
2022-09-13T07:41:25.783Z,18.53
2022-09-13T07:43:52.576Z,18.31
2022-09-13T07:46:26.613Z,18.60
2022-09-13T07:48:55.040Z,19.05
2022-09-13T07:51:23.453Z,18.42
2022-09-13T07:53:56.934Z,19.26
2022-09-13T07:56:29.173Z,18.77
2022-09-13T07:58:56.142Z,18.98
2022-09-13T08:01:24.830Z,19.17
2022-09-13T08:04:02.292Z,19.16
2022-09-13T08:06:30.996Z,19.02
2022-09-13T08:08:58.054Z,19.22
2022-09-13T08:11:29.634Z,19.13
2022-09-13T08:13:56.184Z,18.97
2022-09-13T08:16:24.014Z,19.37
2022-09-13T08:18:54.388Z,19.46
2022-09-13T08:21:21.085Z,19.81
2022-09-13T08:23:48.031Z,19.49
2022-09-13T08:26:14.684Z,19.52
2022-09-13T08:28:42.252Z,19.45
2022-09-13T08:31:11.442Z,19.52
2022-09-13T08:33:40.213Z,19.74
2022-09-13T08:36:09.554Z,19.96
2022-09-13T08:38:37.940Z,19.29
2022-09-13T08:41:42.600Z,19.23
2022-09-13T08:44:34.811Z,18.33
2022-09-13T08:47:19.764Z,18.23
2022-09-13T08:49:49.774Z,19.18
2022-09-13T08:52:30.743Z,19.83
2022-09-13T08:54:58.723Z,20.35
2022-09-13T08:57:34.542Z,20.44
2022-09-13T09:00:04.121Z,20.75
2022-09-13T09:02:43.950Z,19.73
2022-09-13T09:05:30.699Z,19.84
2022-09-13T09:08:02.066Z,19.01
2022-09-13T09:10:45.214Z,19.18
2022-09-13T09:13:24.646Z,18.79
2022-09-13T09:16:05.431Z,19.64
2022-09-13T09:18:40.352Z,21.44
2022-09-13T09:21:20.404Z,20.80
2022-09-13T09:23:52.090Z,19.96
2022-09-13T09:26:22.811Z,20.13
2022-09-13T09:28:50.998Z,20.61
2022-09-13T09:31:32.321Z,20.77
2022-09-13T09:34:22.549Z,20.41
2022-09-13T09:36:54.924Z,21.90
2022-09-13T09:39:21.543Z,20.96
2022-09-13T09:41:47.981Z,21.00
2022-09-13T09:44:23.039Z,20.14
2022-09-13T09:47:12.036Z,21.54
2022-09-13T09:50:05.300Z,21.50
2022-09-13T09:52:35.445Z,21.00
2022-09-13T09:55:11.257Z,21.03
2022-09-13T09:57:52.962Z,21.58
2022-09-13T10:00:20.585Z,20.29
2022-09-13T10:02:48.758Z,19.63
2022-09-13T10:05:20.026Z,19.14
2022-09-13T10:08:03.059Z,19.47
2022-09-13T10:10:36.858Z,19.29
2022-09-13T10:13:05.297Z,19.99
2022-09-13T10:15:35.445Z,20.58
2022-09-13T10:18:33.396Z,21.22
2022-09-13T10:21:01.683Z,21.81
2022-09-13T10:23:28.526Z,21.29
2022-09-13T10:26:02.837Z,21.20
2022-09-13T10:28:31.450Z,21.31
2022-09-13T10:31:04.287Z,21.28
2022-09-13T10:33:42.506Z,21.49
2022-09-13T10:36:41.153Z,21.69
2022-09-13T10:39:07.506Z,21.41
2022-09-13T10:41:35.526Z,20.48
2022-09-13T10:44:09.516Z,20.16
2022-09-13T10:46:39.172Z,20.77
2022-09-13T10:49:05.649Z,21.59
2022-09-13T10:51:36.826Z,21.91
2022-09-13T10:54:20.184Z,20.65
2022-09-13T10:56:48.079Z,20.34
2022-09-13T10:59:17.711Z,20.87
2022-09-13T11:02:10.695Z,21.43
2022-09-13T11:04:55.787Z,20.93
2022-09-13T11:07:25.196Z,21.10
2022-09-13T11:10:13.473Z,20.22
2022-09-13T11:12:55.320Z,20.49
2022-09-13T11:16:26.335Z,19.97
2022-09-13T11:19:12.823Z,20.70
2022-09-13T11:21:53.086Z,20.45
2022-09-13T11:24:43.648Z,20.07
2022-09-13T11:27:32.336Z,20.14
2022-09-13T11:30:11.538Z,20.11
2022-09-13T11:32:59.978Z,20.90
2022-09-13T11:36:03.669Z,19.93
2022-09-13T11:38:35.592Z,20.83
2022-09-13T11:41:36.522Z,20.98
2022-09-13T11:44:33.846Z,20.69
2022-09-13T11:47:08.141Z,20.53
2022-09-13T11:50:06.224Z,20.75
2022-09-13T11:52:51.511Z,21.20
2022-09-13T11:55:32.375Z,21.14
2022-09-13T11:58:02.442Z,21.73
2022-09-13T12:00:35.503Z,21.88
2022-09-13T12:03:11.498Z,22.20
2022-09-13T12:06:17.476Z,22.43
2022-09-13T12:08:48.357Z,22.45
2022-09-13T12:11:25.389Z,23.80
2022-09-13T12:14:01.070Z,23.27
2022-09-13T12:16:37.143Z,22.07
2022-09-13T12:19:54.922Z,21.23
2022-09-13T12:22:27.661Z,20.76
2022-09-13T12:24:59.539Z,20.96
2022-09-13T12:27:39.656Z,20.69
2022-09-13T12:30:19.542Z,20.11
2022-09-13T12:32:48.015Z,20.71
2022-09-13T12:35:20.896Z,20.21
2022-09-13T12:37:53.347Z,21.04
2022-09-13T12:40:38.557Z,20.93
2022-09-13T12:43:17.416Z,21.01
2022-09-13T12:45:43.945Z,20.30
2022-09-13T12:48:22.390Z,20.34
2022-09-13T12:51:10.690Z,20.60
2022-09-13T12:54:03.439Z,20.21
2022-09-13T12:56:44.899Z,20.35
2022-09-13T12:59:18.576Z,20.02
2022-09-13T13:01:47.621Z,20.69
2022-09-13T13:04:17.613Z,21.61
2022-09-13T13:06:57.507Z,21.12
2022-09-13T13:09:43.718Z,20.67
2022-09-13T13:12:32.329Z,20.35
2022-09-13T13:15:01.062Z,19.78
2022-09-13T13:17:38.525Z,19.53
2022-09-13T13:20:42.937Z,20.36
2022-09-13T13:23:27.762Z,20.45
2022-09-13T13:26:09.573Z,19.90
2022-09-13T13:28:45.297Z,20.43
2022-09-13T13:31:24.177Z,19.48
2022-09-13T13:33:59.764Z,20.20
2022-09-13T13:36:28.778Z,19.96
2022-09-13T13:38:56.417Z,20.50
2022-09-13T13:41:38.729Z,20.42
2022-09-13T13:44:20.617Z,19.96
2022-09-13T13:46:55.421Z,20.02
2022-09-13T13:50:07.211Z,20.31
2022-09-13T13:52:38.902Z,20.85
2022-09-13T13:55:44.349Z,19.95
2022-09-13T13:58:31.213Z,20.30
2022-09-13T14:00:59.991Z,19.95
2022-09-13T14:03:32.461Z,20.32
2022-09-13T14:06:07.318Z,19.97
2022-09-13T14:08:40.061Z,19.98
2022-09-13T14:11:30.617Z,19.82
2022-09-13T14:14:25.178Z,19.64
2022-09-13T14:17:30.947Z,19.52
2022-09-13T14:20:24.826Z,19.95
2022-09-13T14:22:51.301Z,19.97
2022-09-13T14:25:22.498Z,20.09
2022-09-13T14:27:49.933Z,19.89
2022-09-13T14:30:27.068Z,20.12
2022-09-13T14:32:57.648Z,20.46
2022-09-13T14:35:38.520Z,19.68
2022-09-13T14:38:22.733Z,20.07
2022-09-13T14:40:50.680Z,19.73
2022-09-13T14:43:24.482Z,19.80
2022-09-13T14:46:13.358Z,19.19
2022-09-13T14:48:43.581Z,19.18
2022-09-13T14:51:18.889Z,19.39
2022-09-13T14:53:48.037Z,19.43
2022-09-13T14:56:21.052Z,19.55
2022-09-13T14:58:48.677Z,19.86
2022-09-13T15:01:21.257Z,19.35
2022-09-13T15:03:48.459Z,19.93
2022-09-13T15:06:26.954Z,19.84
2022-09-13T15:09:23.482Z,20.55
2022-09-13T15:11:53.518Z,20.16
2022-09-13T15:14:34.903Z,20.29
2022-09-13T15:17:09.112Z,20.28
2022-09-13T15:19:39.888Z,19.96
2022-09-13T15:22:14.553Z,20.42
2022-09-13T15:24:58.174Z,20.52
2022-09-13T15:27:34.234Z,19.66
2022-09-13T15:30:03.729Z,20.02
2022-09-13T15:32:34.632Z,20.40
2022-09-13T15:35:02.265Z,19.69
2022-09-13T15:37:35.074Z,19.49
2022-09-13T15:40:22.101Z,19.42
2022-09-13T15:42:49.843Z,19.53
2022-09-13T15:45:17.620Z,20.08
2022-09-13T15:47:49.250Z,19.86
2022-09-13T15:50:20.675Z,20.16
2022-09-13T15:52:47.173Z,19.50
2022-09-13T15:55:13.827Z,19.33
2022-09-13T15:57:40.305Z,19.65
2022-09-13T16:00:07.569Z,19.67
2022-09-13T16:02:35.686Z,19.55
2022-09-13T16:05:02.190Z,19.06
2022-09-13T16:07:28.628Z,18.91
2022-09-13T16:09:55.146Z,18.81
2022-09-13T16:12:24.464Z,20.05
2022-09-13T16:14:51.119Z,19.74
2022-09-13T16:17:21.755Z,19.60
2022-09-13T16:19:48.634Z,19.55
2022-09-13T16:22:25.002Z,19.23
2022-09-13T16:24:55.630Z,19.20
2022-09-13T16:27:22.193Z,19.75
2022-09-13T16:29:48.747Z,19.04
2022-09-13T16:32:15.687Z,19.18
2022-09-13T16:34:42.202Z,19.62
2022-09-13T16:37:08.826Z,19.24
2022-09-13T16:39:35.400Z,19.41
2022-09-13T16:42:01.895Z,19.21
2022-09-13T16:44:28.442Z,19.14
2022-09-13T16:46:55.082Z,19.08
2022-09-13T16:49:21.581Z,19.47
2022-09-13T16:51:48.032Z,19.10
2022-09-13T16:54:14.651Z,19.12
2022-09-13T16:56:41.427Z,19.33
2022-09-13T16:59:08.003Z,18.92
2022-09-13T17:01:35.781Z,18.91
2022-09-13T17:04:02.648Z,18.90
2022-09-13T17:06:29.228Z,18.96
2022-09-13T17:09:01.934Z,18.77
2022-09-13T17:11:30.755Z,18.60
2022-09-13T17:13:57.590Z,18.74
2022-09-13T17:16:35.658Z,19.48
2022-09-13T17:19:05.004Z,19.45
2022-09-13T17:21:33.773Z,19.07
2022-09-13T17:24:01.244Z,18.62
2022-09-13T17:26:27.776Z,19.05
2022-09-13T17:28:54.234Z,19.16
2022-09-13T17:31:20.854Z,19.21
2022-09-13T17:33:47.449Z,19.16
2022-09-13T17:36:14.710Z,19.30
2022-09-13T17:38:41.900Z,18.93
2022-09-13T17:41:14.349Z,19.08
2022-09-13T17:43:44.168Z,19.02
2022-09-13T17:46:13.061Z,19.27
2022-09-13T17:48:40.100Z,18.87
2022-09-13T17:51:09.692Z,19.02
2022-09-13T17:53:45.990Z,18.01
2022-09-13T17:56:17.201Z,17.66
2022-09-13T17:58:43.638Z,18.11
2022-09-13T18:01:11.407Z,17.46
2022-09-13T18:03:39.163Z,17.45
2022-09-13T18:06:08.689Z,17.71
2022-09-13T18:08:37.214Z,17.77
2022-09-13T18:11:13.925Z,17.64
2022-09-13T18:13:44.124Z,17.85
2022-09-13T18:16:20.702Z,17.65
2022-09-13T18:18:49.185Z,18.20
2022-09-13T18:21:18.624Z,18.23
2022-09-13T18:23:46.459Z,17.92
2022-09-13T18:26:14.823Z,18.23
2022-09-13T18:28:43.322Z,18.06
2022-09-13T18:31:14.067Z,18.14
2022-09-13T18:33:40.777Z,18.30
2022-09-13T18:36:08.264Z,18.13
2022-09-13T18:38:40.008Z,18.48
2022-09-13T18:41:15.117Z,18.20
2022-09-13T18:43:44.084Z,18.22
2022-09-13T18:46:16.230Z,18.41
2022-09-13T18:48:44.763Z,18.26
2022-09-13T18:51:13.302Z,18.15
2022-09-13T18:53:40.247Z,17.59
2022-09-13T18:56:08.883Z,17.82
2022-09-13T18:58:37.547Z,18.27
2022-09-13T19:01:12.919Z,17.98
2022-09-13T19:03:40.881Z,17.50
2022-09-13T19:06:25.587Z,18.07
2022-09-13T19:08:52.954Z,17.80
2022-09-13T19:11:44.838Z,17.29
2022-09-13T19:14:07.304Z,17.18
2022-09-13T19:16:34.239Z,17.63
2022-09-13T19:19:01.249Z,17.99
2022-09-13T19:21:30.260Z,17.39
2022-09-13T19:24:01.503Z,17.24
2022-09-13T19:26:35.220Z,17.52
2022-09-13T19:29:04.970Z,17.87
2022-09-13T19:31:33.795Z,17.75
2022-09-13T19:34:02.174Z,18.08
2022-09-13T19:36:34.050Z,18.03
2022-09-13T19:39:00.973Z,18.35
2022-09-13T19:41:29.791Z,18.00
2022-09-13T19:44:00.658Z,17.91
2022-09-13T19:46:31.660Z,18.21
2022-09-13T19:48:59.317Z,18.41
2022-09-13T19:51:31.894Z,18.41
2022-09-13T19:53:59.230Z,18.28
2022-09-13T19:56:33.992Z,18.48
2022-09-13T19:59:01.397Z,18.55
2022-09-13T20:01:33.856Z,18.35
2022-09-13T20:04:02.622Z,18.18
2022-09-13T20:06:37.240Z,18.33
2022-09-13T20:09:04.656Z,18.51
2022-09-13T20:11:31.879Z,18.39
2022-09-13T20:13:59.718Z,18.46
2022-09-13T20:16:37.332Z,18.21
2022-09-13T20:19:18.295Z,18.53
2022-09-13T20:21:50.617Z,18.09
2022-09-13T20:24:17.892Z,18.13
2022-09-13T20:26:44.676Z,18.24
2022-09-13T20:29:11.876Z,18.39
2022-09-13T20:31:38.365Z,18.43
2022-09-13T20:34:07.661Z,18.29
2022-09-13T20:36:36.452Z,18.45
2022-09-13T20:39:04.215Z,18.30
2022-09-13T20:41:31.648Z,18.38
2022-09-13T20:43:59.817Z,18.35
2022-09-13T20:46:27.280Z,18.08
2022-09-13T20:48:53.898Z,18.16
2022-09-13T20:51:22.339Z,18.48
2022-09-13T20:53:56.193Z,18.21
2022-09-13T20:56:23.563Z,18.33
2022-09-13T20:58:56.864Z,18.34
2022-09-13T21:01:24.474Z,18.26
2022-09-13T21:03:52.404Z,18.24
2022-09-13T21:06:20.298Z,18.08
2022-09-13T21:08:49.537Z,17.82
2022-09-13T21:11:17.648Z,18.00
2022-09-13T21:13:49.349Z,17.74
2022-09-13T21:16:21.538Z,17.41
2022-09-13T21:18:48.364Z,17.54
2022-09-13T21:21:17.139Z,17.34
2022-09-13T21:23:44.273Z,17.63
2022-09-13T21:26:13.077Z,17.53
2022-09-13T21:28:42.693Z,17.37
2022-09-13T21:31:16.089Z,17.26
2022-09-13T21:33:46.081Z,16.83
2022-09-13T21:36:13.063Z,17.10
2022-09-13T21:38:39.937Z,17.20
2022-09-13T21:41:10.432Z,17.46
2022-09-13T21:43:37.944Z,17.52
2022-09-13T21:46:07.035Z,17.47
2022-09-13T21:48:34.898Z,17.35
2022-09-13T21:51:11.078Z,17.05
2022-09-13T21:53:39.308Z,17.14
2022-09-13T21:56:11.822Z,17.03
2022-09-13T21:58:38.782Z,16.88
2022-09-13T22:01:06.802Z,16.96
2022-09-13T22:03:40.972Z,16.87
2022-09-13T22:06:09.019Z,16.86
2022-09-13T22:08:39.001Z,16.99
2022-09-13T22:11:11.405Z,17.11
2022-09-13T22:13:45.718Z,17.16
2022-09-13T22:16:17.370Z,16.87
2022-09-13T22:18:44.319Z,16.98
2022-09-13T22:21:18.010Z,16.91
2022-09-13T22:23:47.360Z,16.79
2022-09-13T22:26:19.795Z,17.02
2022-09-13T22:28:47.030Z,16.91
2022-09-13T22:31:19.382Z,17.01
2022-09-13T22:33:46.956Z,16.50
2022-09-13T22:36:14.867Z,16.76
2022-09-13T22:38:43.030Z,16.75
2022-09-13T22:41:15.308Z,16.76
2022-09-13T22:43:42.471Z,16.60
2022-09-13T22:46:27.179Z,16.64
2022-09-13T22:48:54.502Z,16.56
2022-09-13T22:51:21.756Z,16.71
2022-09-13T22:53:49.553Z,16.90
2022-09-13T22:56:17.234Z,16.55
2022-09-13T22:58:44.157Z,16.70
2022-09-13T23:01:18.061Z,16.76
2022-09-13T23:03:46.380Z,16.41
2022-09-13T23:06:15.626Z,16.69
2022-09-13T23:08:42.438Z,16.50
2022-09-13T23:11:23.188Z,16.55
2022-09-13T23:13:52.130Z,16.37
2022-09-13T23:16:24.957Z,16.38
2022-09-13T23:18:52.515Z,16.36
2022-09-13T23:21:20.673Z,16.43
2022-09-13T23:23:47.317Z,16.18
2022-09-13T23:26:17.613Z,16.12
2022-09-13T23:28:45.740Z,16.01
2022-09-13T23:31:17.797Z,16.20
2022-09-13T23:33:50.020Z,16.03
2022-09-13T23:36:20.909Z,16.24
2022-09-13T23:38:49.764Z,16.09
2022-09-13T23:41:17.780Z,16.21
2022-09-13T23:43:44.769Z,16.14
2022-09-13T23:46:11.621Z,16.11
2022-09-13T23:48:38.613Z,16.02
2022-09-13T23:51:09.548Z,15.99
2022-09-13T23:53:36.879Z,16.22
2022-09-13T23:56:05.400Z,16.17
2022-09-13T23:58:35.129Z,16.23
